Bosporus — V2QY — position and weather

sailwx.info

Track history (hours):
 
Tides and Currents Weather Stations Pressure Air Temp Water Temp Dewpoint Dewpoint Depression Visibility Wind Speed Wind Dir Waves Ship Positions

Bosporus

Last reported at 2014-Aug-29 04:33 UTC. Time now 2014-Aug-29 05:37 UTC.
Position N 43°25' E 004°56'.

Length 100 m; draft 4 m.

Type: Cargo ship. MMSI: 304010802.

Date/timePositionNaut miles runAvg speedWind from/ knotsBaromVisibWave heightAir tempDewpointWater temp
2014-Aug-29 04:33N 43°25' E 004°56'0 0.0
2014-Aug-29 03:33N 43°25' E 004°56'0 0.0
2014-Aug-29 02:33N 43°25' E 004°56'0 0.0
2014-Aug-29 01:33N 43°25' E 004°56'0 0.0
2014-Aug-29 00:33N 43°25' E 004°56'0 0.0
2014-Aug-28 23:33N 43°25' E 004°56'0 0.0
2014-Aug-28 22:33N 43°25' E 004°56'0 0.1
2014-Aug-28 21:33N 43°25' E 004°56'0 0.0
2014-Aug-28 20:33N 43°25' E 004°56'0 0.0
2014-Aug-28 19:33N 43°25' E 004°56'0 0.0
2014-Aug-28 18:33N 43°25' E 004°56'7 7.1
2014-Aug-28 17:33N 43°18' E 004°60'10 9.5
2014-Aug-28 16:33N 43°09' E 004°59'1110.6
2014-Aug-28 15:33N 43°01' E 004°49'1211.4
2014-Aug-28 14:30N 42°53' E 004°37'1211.3
2014-Aug-28 13:25N 42°44' E 004°26'2826.4
2014-Aug-28 12:21N 42°24' E 003°59'3 1.9
2014-Aug-28 10:29N 42°21' E 003°56'1110.4
2014-Aug-28 09:26N 42°13' E 003°46'1210.5
2014-Aug-28 08:19N 42°05' E 003°35'911.5
2014-Aug-28 07:33N 41°59' E 003°26'1211.2
2014-Aug-28 06:27N 41°49' E 003°15'11 9.3
2014-Aug-28 05:18N 41°43' E 003°04'911.5
2014-Aug-28 04:32N 41°38' E 002°54'1111.0
2014-Aug-28 03:33N 41°31' E 002°43'2712.1
2014-Aug-28 01:21N 41°15' E 002°15'1111.2
2014-Aug-28 00:21N 41°09' E 002°02'1111.1
2014-Aug-27 23:19N 41°04' E 001°49'1211.0
2014-Aug-27 22:16N 40°58' E 001°36'114 6.7
2014-Aug-27 05:16N 39°39' W 000°13'55 8.9
2014-Aug-26 23:08N 40°19' E 000°36'6 9.8
2014-Aug-26 22:32N 40°24' E 000°40'10 9.9
2014-Aug-26 21:33N 40°31' E 000°49'10 9.9
2014-Aug-26 20:33N 40°39' E 000°57'10 9.7
2014-Aug-26 19:33N 40°45' E 001°07'10 9.7
2014-Aug-26 18:30N 40°50' E 001°19'9 9.6
2014-Aug-26 17:33N 40°55' E 001°29'10 9.8
2014-Aug-26 16:33N 40°60' E 001°40'10 9.7
2014-Aug-26 15:33N 41°05' E 001°51'11 9.5
2014-Aug-26 14:24N 41°10' E 002°04'8 9.2
2014-Aug-26 13:32N 41°14' E 002°13'9 8.8
2014-Aug-26 12:33N 41°19' E 002°22'9 8.5
2014-Aug-26 11:33N 41°25' E 002°31'8 8.4
2014-Aug-26 10:33N 41°29' E 002°40'12 9.2
2014-Aug-26 09:16N 41°37' E 002°52'1010.4
2014-Aug-26 08:16N 41°43' E 003°04'7 9.0
2014-Aug-26 07:26N 41°47' E 003°12'8 8.9
2014-Aug-26 06:31N 41°54' E 003°19'12 9.9
2014-Aug-26 05:20N 42°02' E 003°29'9 8.9
2014-Aug-26 04:18N 42°10' E 003°37'18 9.7
2014-Aug-26 02:28N 42°23' E 003°53'29 9.8
2014-Aug-25 23:29N 42°46' E 004°18'10 9.8
2014-Aug-25 22:25N 42°54' E 004°27'910.0
2014-Aug-25 21:33N 43°00' E 004°34'10 9.7
2014-Aug-25 20:33N 43°08' E 004°43'10 9.8
2014-Aug-25 19:33N 43°15' E 004°51'9 8.6
2014-Aug-25 18:34N 43°24' E 004°55'2 2.3
2014-Aug-25 17:34N 43°26' E 004°53'0 0.0
2014-Aug-25 16:31N 43°26' E 004°53'0 0.0
2014-Aug-25 15:34N 43°26' E 004°53'0 0.0
2014-Aug-25 14:31N 43°26' E 004°53'0 0.0
2014-Aug-25 13:31N 43°26' E 004°53'0 0.0
2014-Aug-25 12:34N 43°26' E 004°53'0 0.0
2014-Aug-25 11:34N 43°26' E 004°53'0 0.0
2014-Aug-25 10:33N 43°26' E 004°53'0 0.0
2014-Aug-25 09:34N 43°26' E 004°53'0 0.0
2014-Aug-25 08:34N 43°26' E 004°53'0 0.0
2014-Aug-25 07:34N 43°26' E 004°53'0 0.0
2014-Aug-25 06:33N 43°26' E 004°53'0 0.0
2014-Aug-25 05:34N 43°26' E 004°53'0 0.0
2014-Aug-25 04:33N 43°26' E 004°53'0 0.0
2014-Aug-25 03:34N 43°26' E 004°53'0 0.0
2014-Aug-25 02:34N 43°26' E 004°53'0 0.0
2014-Aug-25 01:34N 43°26' E 004°53'0 0.0
2014-Aug-25 00:34N 43°26' E 004°53'0 0.0
2014-Aug-24 23:34N 43°26' E 004°53'0 0.0
2014-Aug-24 22:33N 43°26' E 004°53'0 0.0
2014-Aug-24 21:30N 43°26' E 004°53'0 0.0
2014-Aug-24 20:34N 43°26' E 004°53'0 0.0
2014-Aug-24 19:34N 43°26' E 004°53'1 1.1
2014-Aug-24 18:33N 43°24' E 004°53'1 1.4
2014-Aug-24 17:32N 43°25' E 004°55'0 0.0
2014-Aug-24 16:32N 43°25' E 004°55'0 0.0
2014-Aug-24 15:32N 43°25' E 004°55'0 0.1
2014-Aug-24 14:32N 43°25' E 004°55'0 0.0
2014-Aug-24 13:32N 43°25' E 004°55'0 0.0
2014-Aug-24 12:32N 43°25' E 004°55'0 0.0
2014-Aug-24 11:32N 43°25' E 004°55'0 0.0
2014-Aug-24 10:32N 43°25' E 004°55'0 0.0
2014-Aug-24 09:32N 43°25' E 004°55'0 0.0
2014-Aug-24 08:32N 43°25' E 004°55'0 0.0
2014-Aug-24 07:32N 43°25' E 004°55'0 0.0
2014-Aug-24 06:32N 43°25' E 004°55'0 0.0
2014-Aug-24 05:32N 43°25' E 004°55'0 0.0
2014-Aug-24 04:32N 43°25' E 004°55'0 0.0
2014-Aug-24 03:32N 43°25' E 004°55'0 0.0
2014-Aug-24 02:32N 43°25' E 004°55'0 0.0
2014-Aug-24 01:32N 43°25' E 004°55'1 1.3
2014-Aug-24 00:34N 43°24' E 004°56'10 9.9
2014-Aug-23 23:34N 43°15' E 005°02'10 9.5
2014-Aug-23 22:33N 43°06' E 004°56'1010.1
2014-Aug-23 21:31N 42°59' E 004°46'2010.0
2014-Aug-23 19:29N 42°44' E 004°26'28010.7
2014-Aug-22 17:24N 39°38' W 000°12'2 0.5
2014-Aug-22 14:16N 39°39' W 000°13'96 5.6
2014-Aug-21 21:04N 40°48' E 001°14'610.9
2014-Aug-21 20:33N 40°51' E 001°21'11 9.9
2014-Aug-21 19:30N 40°56' E 001°33'1210.1
2014-Aug-21 18:21N 41°02' E 001°46'910.3
2014-Aug-21 17:27N 41°07' E 001°56'28 9.6
2014-Aug-21 14:29N 41°23' E 002°28'9 9.3
2014-Aug-21 13:30N 41°28' E 002°37'8 8.3
2014-Aug-21 12:32N 41°33' E 002°46'10 9.4
2014-Aug-21 11:29N 41°39' E 002°57'9 9.8
2014-Aug-21 10:33N 41°45' E 003°06'32 9.5
2014-Aug-21 07:07N 42°15' E 003°20'5 9.0
2014-Aug-21 06:32N 42°20' E 003°22'10 9.6
2014-Aug-21 05:32N 42°30' E 003°24'1010.5
2014-Aug-21 04:33N 42°40' E 003°26'1010.1
2014-Aug-21 03:33N 42°50' E 003°29'1010.2
2014-Aug-21 02:32N 42°60' E 003°34'9 9.3
2014-Aug-21 01:33N 43°03' E 003°46'1010.0
2014-Aug-21 00:33N 43°05' E 003°59'9 9.4
2014-Aug-20 23:33N 43°08' E 004°11'10 9.5
2014-Aug-20 22:33N 43°11' E 004°24'9 9.2
2014-Aug-20 21:33N 43°13' E 004°36'9 9.0
2014-Aug-20 20:33N 43°15' E 004°48'9 8.9
2014-Aug-20 19:34N 43°22' E 004°56'4 3.7
2014-Aug-20 18:33N 43°26' E 004°54'0 0.0
2014-Aug-20 17:31N 43°26' E 004°54'0 0.0
2014-Aug-20 16:31N 43°26' E 004°54'0 0.0
2014-Aug-20 15:31N 43°26' E 004°54'0 0.0
2014-Aug-20 14:31N 43°26' E 004°54'0 0.0
2014-Aug-20 13:28N 43°26' E 004°54'0 0.0
2014-Aug-20 12:31N 43°26' E 004°54'0 0.0
2014-Aug-20 11:31N 43°26' E 004°54'0 0.0
2014-Aug-20 10:31N 43°26' E 004°54'0 0.0
2014-Aug-20 09:31N 43°26' E 004°54'0 0.0
2014-Aug-20 08:31N 43°26' E 004°54'0 0.0
2014-Aug-20 07:31N 43°26' E 004°54'0 0.0
2014-Aug-20 06:31N 43°26' E 004°54'0 0.0
2014-Aug-20 05:31N 43°26' E 004°54'0 0.0
2014-Aug-20 04:31N 43°26' E 004°54'0 0.0
2014-Aug-20 03:31N 43°26' E 004°54'0 0.0
2014-Aug-20 02:31N 43°26' E 004°54'0 0.0
2014-Aug-20 01:31N 43°26' E 004°54'0 0.0
2014-Aug-20 00:31N 43°26' E 004°54'0 0.0
2014-Aug-19 23:31N 43°26' E 004°54'0 0.0
2014-Aug-19 22:31N 43°26' E 004°54'0 0.0
2014-Aug-19 21:31N 43°26' E 004°54'0 0.0
2014-Aug-19 20:31N 43°26' E 004°54'0 0.0
2014-Aug-19 19:31N 43°26' E 004°54'0 0.0
2014-Aug-19 18:33N 43°26' E 004°54'3 2.5
2014-Aug-19 17:31N 43°24' E 004°57'0 0.1
2014-Aug-19 16:31N 43°24' E 004°57'0 0.0
2014-Aug-19 15:31N 43°24' E 004°57'0 0.0
2014-Aug-19 14:31N 43°24' E 004°57'0 0.0
2014-Aug-19 13:31N 43°24' E 004°57'0 0.0
2014-Aug-19 12:31N 43°24' E 004°57'0 0.0
2014-Aug-19 11:31N 43°24' E 004°57'0 0.0
2014-Aug-19 10:31N 43°24' E 004°57'0 0.0
2014-Aug-19 09:31N 43°24' E 004°57'0 0.0
2014-Aug-19 08:31N 43°24' E 004°57'0 0.1
2014-Aug-19 07:31N 43°24' E 004°56'0 0.1
2014-Aug-19 06:31N 43°24' E 004°56'0 0.1
2014-Aug-19 05:31N 43°24' E 004°56'  
Track history (hours):
 
Tides and Currents Weather Stations Pressure Air Temp Water Temp Dewpoint Dewpoint Depression Visibility Wind Speed Wind Dir Waves Ship Positions

Bosporus

Last reported at 2014-Aug-29 04:33 UTC. Time now 2014-Aug-29 05:37 UTC.
Position N 43°25' E 004°56'.

Length 100 m; draft 4 m.

Type: Cargo ship. MMSI: 304010802.

Date/timePositionNaut miles runAvg speedWind from/ knotsBaromVisibWave heightAir tempDewpointWater temp
2014-Aug-29 04:33N 43°25' E 004°56'0 0.0
2014-Aug-29 03:33N 43°25' E 004°56'0 0.0
2014-Aug-29 02:33N 43°25' E 004°56'0 0.0
2014-Aug-29 01:33N 43°25' E 004°56'0 0.0
2014-Aug-29 00:33N 43°25' E 004°56'0 0.0
2014-Aug-28 23:33N 43°25' E 004°56'0 0.0
2014-Aug-28 22:33N 43°25' E 004°56'0 0.1
2014-Aug-28 21:33N 43°25' E 004°56'0 0.0
2014-Aug-28 20:33N 43°25' E 004°56'0 0.0
2014-Aug-28 19:33N 43°25' E 004°56'0 0.0
2014-Aug-28 18:33N 43°25' E 004°56'7 7.1
2014-Aug-28 17:33N 43°18' E 004°60'10 9.5
2014-Aug-28 16:33N 43°09' E 004°59'1110.6
2014-Aug-28 15:33N 43°01' E 004°49'1211.4
2014-Aug-28 14:30N 42°53' E 004°37'1211.3
2014-Aug-28 13:25N 42°44' E 004°26'2826.4
2014-Aug-28 12:21N 42°24' E 003°59'3 1.9
2014-Aug-28 10:29N 42°21' E 003°56'1110.4
2014-Aug-28 09:26N 42°13' E 003°46'1210.5
2014-Aug-28 08:19N 42°05' E 003°35'911.5
2014-Aug-28 07:33N 41°59' E 003°26'1211.2
2014-Aug-28 06:27N 41°49' E 003°15'11 9.3
2014-Aug-28 05:18N 41°43' E 003°04'911.5
2014-Aug-28 04:32N 41°38' E 002°54'1111.0
2014-Aug-28 03:33N 41°31' E 002°43'2712.1
2014-Aug-28 01:21N 41°15' E 002°15'1111.2
2014-Aug-28 00:21N 41°09' E 002°02'1111.1
2014-Aug-27 23:19N 41°04' E 001°49'1211.0
2014-Aug-27 22:16N 40°58' E 001°36'114 6.7
2014-Aug-27 05:16N 39°39' W 000°13'55 8.9
2014-Aug-26 23:08N 40°19' E 000°36'6 9.8
2014-Aug-26 22:32N 40°24' E 000°40'10 9.9
2014-Aug-26 21:33N 40°31' E 000°49'10 9.9
2014-Aug-26 20:33N 40°39' E 000°57'10 9.7
2014-Aug-26 19:33N 40°45' E 001°07'10 9.7
2014-Aug-26 18:30N 40°50' E 001°19'9 9.6
2014-Aug-26 17:33N 40°55' E 001°29'10 9.8
2014-Aug-26 16:33N 40°60' E 001°40'10 9.7
2014-Aug-26 15:33N 41°05' E 001°51'11 9.5
2014-Aug-26 14:24N 41°10' E 002°04'8 9.2
2014-Aug-26 13:32N 41°14' E 002°13'9 8.8
2014-Aug-26 12:33N 41°19' E 002°22'9 8.5
2014-Aug-26 11:33N 41°25' E 002°31'8 8.4
2014-Aug-26 10:33N 41°29' E 002°40'12 9.2
2014-Aug-26 09:16N 41°37' E 002°52'1010.4
2014-Aug-26 08:16N 41°43' E 003°04'7 9.0
2014-Aug-26 07:26N 41°47' E 003°12'8 8.9
2014-Aug-26 06:31N 41°54' E 003°19'12 9.9
2014-Aug-26 05:20N 42°02' E 003°29'9 8.9
2014-Aug-26 04:18N 42°10' E 003°37'18 9.7
2014-Aug-26 02:28N 42°23' E 003°53'29 9.8
2014-Aug-25 23:29N 42°46' E 004°18'10 9.8
2014-Aug-25 22:25N 42°54' E 004°27'910.0
2014-Aug-25 21:33N 43°00' E 004°34'10 9.7
2014-Aug-25 20:33N 43°08' E 004°43'10 9.8
2014-Aug-25 19:33N 43°15' E 004°51'9 8.6
2014-Aug-25 18:34N 43°24' E 004°55'2 2.3
2014-Aug-25 17:34N 43°26' E 004°53'0 0.0
2014-Aug-25 16:31N 43°26' E 004°53'0 0.0
2014-Aug-25 15:34N 43°26' E 004°53'0 0.0
2014-Aug-25 14:31N 43°26' E 004°53'0 0.0
2014-Aug-25 13:31N 43°26' E 004°53'0 0.0
2014-Aug-25 12:34N 43°26' E 004°53'0 0.0
2014-Aug-25 11:34N 43°26' E 004°53'0 0.0
2014-Aug-25 10:33N 43°26' E 004°53'0 0.0
2014-Aug-25 09:34N 43°26' E 004°53'0 0.0
2014-Aug-25 08:34N 43°26' E 004°53'0 0.0
2014-Aug-25 07:34N 43°26' E 004°53'0 0.0
2014-Aug-25 06:33N 43°26' E 004°53'0 0.0
2014-Aug-25 05:34N 43°26' E 004°53'0 0.0
2014-Aug-25 04:33N 43°26' E 004°53'0 0.0
2014-Aug-25 03:34N 43°26' E 004°53'0 0.0
2014-Aug-25 02:34N 43°26' E 004°53'0 0.0
2014-Aug-25 01:34N 43°26' E 004°53'0 0.0
2014-Aug-25 00:34N 43°26' E 004°53'0 0.0
2014-Aug-24 23:34N 43°26' E 004°53'0 0.0
2014-Aug-24 22:33N 43°26' E 004°53'0 0.0
2014-Aug-24 21:30N 43°26' E 004°53'0 0.0
2014-Aug-24 20:34N 43°26' E 004°53'0 0.0
2014-Aug-24 19:34N 43°26' E 004°53'1 1.1
2014-Aug-24 18:33N 43°24' E 004°53'1 1.4
2014-Aug-24 17:32N 43°25' E 004°55'0 0.0
2014-Aug-24 16:32N 43°25' E 004°55'0 0.0
2014-Aug-24 15:32N 43°25' E 004°55'0 0.1
2014-Aug-24 14:32N 43°25' E 004°55'0 0.0
2014-Aug-24 13:32N 43°25' E 004°55'0 0.0
2014-Aug-24 12:32N 43°25' E 004°55'0 0.0
2014-Aug-24 11:32N 43°25' E 004°55'0 0.0
2014-Aug-24 10:32N 43°25' E 004°55'0 0.0
2014-Aug-24 09:32N 43°25' E 004°55'0 0.0
2014-Aug-24 08:32N 43°25' E 004°55'0 0.0
2014-Aug-24 07:32N 43°25' E 004°55'0 0.0
2014-Aug-24 06:32N 43°25' E 004°55'0 0.0
2014-Aug-24 05:32N 43°25' E 004°55'0 0.0
2014-Aug-24 04:32N 43°25' E 004°55'0 0.0
2014-Aug-24 03:32N 43°25' E 004°55'0 0.0
2014-Aug-24 02:32N 43°25' E 004°55'0 0.0
2014-Aug-24 01:32N 43°25' E 004°55'1 1.3
2014-Aug-24 00:34N 43°24' E 004°56'10 9.9
2014-Aug-23 23:34N 43°15' E 005°02'10 9.5
2014-Aug-23 22:33N 43°06' E 004°56'1010.1
2014-Aug-23 21:31N 42°59' E 004°46'2010.0
2014-Aug-23 19:29N 42°44' E 004°26'28010.7
2014-Aug-22 17:24N 39°38' W 000°12'2 0.5
2014-Aug-22 14:16N 39°39' W 000°13'96 5.6
2014-Aug-21 21:04N 40°48' E 001°14'610.9
2014-Aug-21 20:33N 40°51' E 001°21'11 9.9
2014-Aug-21 19:30N 40°56' E 001°33'1210.1
2014-Aug-21 18:21N 41°02' E 001°46'910.3
2014-Aug-21 17:27N 41°07' E 001°56'28 9.6
2014-Aug-21 14:29N 41°23' E 002°28'9 9.3
2014-Aug-21 13:30N 41°28' E 002°37'8 8.3
2014-Aug-21 12:32N 41°33' E 002°46'10 9.4
2014-Aug-21 11:29N 41°39' E 002°57'9 9.8
2014-Aug-21 10:33N 41°45' E 003°06'32 9.5
2014-Aug-21 07:07N 42°15' E 003°20'5 9.0
2014-Aug-21 06:32N 42°20' E 003°22'10 9.6
2014-Aug-21 05:32N 42°30' E 003°24'1010.5
2014-Aug-21 04:33N 42°40' E 003°26'1010.1
2014-Aug-21 03:33N 42°50' E 003°29'1010.2
2014-Aug-21 02:32N 42°60' E 003°34'9 9.3
2014-Aug-21 01:33N 43°03' E 003°46'1010.0
2014-Aug-21 00:33N 43°05' E 003°59'9 9.4
2014-Aug-20 23:33N 43°08' E 004°11'10 9.5
2014-Aug-20 22:33N 43°11' E 004°24'9 9.2
2014-Aug-20 21:33N 43°13' E 004°36'9 9.0
2014-Aug-20 20:33N 43°15' E 004°48'9 8.9
2014-Aug-20 19:34N 43°22' E 004°56'4 3.7
2014-Aug-20 18:33N 43°26' E 004°54'0 0.0
2014-Aug-20 17:31N 43°26' E 004°54'0 0.0
2014-Aug-20 16:31N 43°26' E 004°54'0 0.0
2014-Aug-20 15:31N 43°26' E 004°54'0 0.0
2014-Aug-20 14:31N 43°26' E 004°54'0 0.0
2014-Aug-20 13:28N 43°26' E 004°54'0 0.0
2014-Aug-20 12:31N 43°26' E 004°54'0 0.0
2014-Aug-20 11:31N 43°26' E 004°54'0 0.0
2014-Aug-20 10:31N 43°26' E 004°54'0 0.0
2014-Aug-20 09:31N 43°26' E 004°54'0 0.0
2014-Aug-20 08:31N 43°26' E 004°54'0 0.0
2014-Aug-20 07:31N 43°26' E 004°54'0 0.0
2014-Aug-20 06:31N 43°26' E 004°54'0 0.0
2014-Aug-20 05:31N 43°26' E 004°54'0 0.0
2014-Aug-20 04:31N 43°26' E 004°54'0 0.0
2014-Aug-20 03:31N 43°26' E 004°54'0 0.0
2014-Aug-20 02:31N 43°26' E 004°54'0 0.0
2014-Aug-20 01:31N 43°26' E 004°54'0 0.0
2014-Aug-20 00:31N 43°26' E 004°54'0 0.0
2014-Aug-19 23:31N 43°26' E 004°54'0 0.0
2014-Aug-19 22:31N 43°26' E 004°54'0 0.0
2014-Aug-19 21:31N 43°26' E 004°54'0 0.0
2014-Aug-19 20:31N 43°26' E 004°54'0 0.0
2014-Aug-19 19:31N 43°26' E 004°54'0 0.0
2014-Aug-19 18:33N 43°26' E 004°54'3 2.5
2014-Aug-19 17:31N 43°24' E 004°57'0 0.1
2014-Aug-19 16:31N 43°24' E 004°57'0 0.0
2014-Aug-19 15:31N 43°24' E 004°57'0 0.0
2014-Aug-19 14:31N 43°24' E 004°57'0 0.0
2014-Aug-19 13:31N 43°24' E 004°57'0 0.0
2014-Aug-19 12:31N 43°24' E 004°57'0 0.0
2014-Aug-19 11:31N 43°24' E 004°57'0 0.0
2014-Aug-19 10:31N 43°24' E 004°57'0 0.0
2014-Aug-19 09:31N 43°24' E 004°57'0 0.0
2014-Aug-19 08:31N 43°24' E 004°57'0 0.1
2014-Aug-19 07:31N 43°24' E 004°56'0 0.1
2014-Aug-19 06:31N 43°24' E 004°56'0 0.1
2014-Aug-19 05:31N 43°24' E 004°56'  

Dump ship's entire track history